Nearby METAR Reports

 

KSJC - San Jose, California, USA
Distance from station: NE 14km
Updated: 24/06/2018 16:53
Few Clouds
Few Clouds
 Wind from SE
Wind: SE 13 km/h
Temperature: 16°C
Dew Point: 13°C
Humidity: 83%
Barometer: 1009.8 hPa
Clouds: Few Clouds
Visibility: 16 km
Cloud details: Few Clouds 701 m
2018/06/24 13:53 KSJC 241353Z 13007KT 10SM FEW023 16/13 A2982 RMK AO2 SLP096 T01560128
KNUQ - Moffett Nas/Mtn, California, USA
Distance from station: N 14km
Updated: 24/06/2018 16:56
Mostly cloudy
Mostly cloudy
 Wind from SE
Wind: SE 6 km/h
Temperature: 17°C
Dew Point: 13°C
Humidity: 77%
Barometer: 1009.8 hPa
Clouds: Mostly cloudy
Visibility: 16 km
Cloud details: Mostly cloudy 335 m
2018/06/24 13:56 KNUQ 241356Z AUTO 14003KT 10SM BKN011 17/13 A2982 RMK AO2 SLP100 T01720133
 
KPAO - Palo Alto, California, USA
Distance from station: NNW 23km
Updated: 24/06/2018 16:47
Clear
Clear
 Wind from calm
Wind: Calm
Temperature: 16°C
Dew Point: 14°C
Humidity: 88%
Barometer: 1009.5 hPa
Clouds: Clear
Visibility: 16 km
2018/06/24 13:47 KPAO 241347Z 00000KT 10SM SKC 16/14 A2981
KRHV - San Jose/Reid, California, USA
Distance from station: ENE 19km
Updated: 24/06/2018 16:47
Clear
Clear
 Wind from S
Wind: S 13 km/h
Temperature: 16°C
Dew Point: 12°C
Humidity: 77%
Barometer: 1009.1 hPa
Clouds: Clear
Visibility: 16 km
2018/06/24 13:47 KRHV 241347Z 17007KT 10SM SKC 16/12 A2980
 
KOAK - Oakland, California, USA
Distance from station: NNW 50km
Updated: 24/06/2018 16:53
Partly cloudy
Partly cloudy
 Wind from N
Wind: N 7 km/h
Temperature: 14°C
Dew Point: 13°C
Humidity: 94%
Barometer: 1009.8 hPa
Clouds: Partly cloudy
Visibility: 16 km
Cloud details: Partly cloudy 244 m
Partly cloudy 1524 m
2018/06/24 13:53 KOAK 241353Z 01004KT 10SM SCT008 SCT050 14/13 A2982 RMK AO2 SLP096 T01440133
KSQL - San Carlos Airpo, California, USA
Distance from station: NW 34km
Updated: 24/06/2018 17:00
Clear
Clear
 Wind from calm
Wind: Calm
Temperature: 17°C
Dew Point: 13°C
Humidity: 77%
Barometer: 1009.8 hPa
Clouds: Clear
Visibility: 14 km
2018/06/24 14:00 KSQL 241400Z AUTO 00000KT 9SM CLR 17/13 A2982 RMK AO2
 
KSFO - San Francisco, California, USA
Distance from station: NW 49km
Updated: 24/06/2018 16:56
Few Clouds
Few Clouds
 Wind from calm
Wind: Calm
Temperature: 18°C
Dew Point: 12°C
Humidity: 68%
Barometer: 1009.5 hPa
Clouds: Few Clouds
Visibility: 16 km
Cloud details: Few Clouds 335 m
2018/06/24 13:56 KSFO 241356Z 00000KT 10SM FEW011 18/12 A2981 RMK AO2 SLP095 T01780117
KE16 - San Martin, California, USA
Distance from station: ESE 43km
Updated: 24/06/2018 16:50
Overcast
Overcast
 Wind from ESE
Wind: ESE 17 km/h
Temperature: 14°C
Dew Point: 12°C
Humidity: 88%
Barometer: 1010.8 hPa
Clouds: Overcast
Visibility: 16 km
Cloud details: Overcast 244 m
2018/06/24 13:50 KE16 241350Z AUTO 12009KT 10SM OVC008 14/12 A2985 RMK AO2
 
KWVI - Watsonville, California, USA
Distance from station: SSE 44km
Updated: 24/06/2018 16:53
Overcast
Overcast
 Wind from W
Wind: W 11 km/h
Temperature: 14°C
Dew Point: 13°C
Humidity: 94%
Barometer: 1010.8 hPa
Clouds: Overcast
Visibility: 13 km
Cloud details: Overcast 274 m
2018/06/24 13:53 KWVI 241353Z AUTO 27006KT 8SM OVC009 14/13 A2985 RMK AO2 SLP108 T01440128 $
KHAF - Half Moon Bay, California, USA
Distance from station: WNW 50km
Updated: 24/06/2018 17:15
Overcast
Overcast
 Wind from S
Wind: S 15 km/h
Temperature: 14°C
Dew Point: 12°C
Humidity: 88%
Barometer: 1010.8 hPa
Clouds: Overcast
Visibility: 11 km
Cloud details: Overcast 244 m
2018/06/24 14:15 KHAF 241415Z AUTO 17008KT 7SM OVC008 14/12 A2985 RMK AO2
 
KHWD - Hayward, California, USA
Distance from station: N 44km
Updated: 24/06/2018 16:54
Clear
Clear
 Wind from calm
Wind: Calm
Temperature: 16°C
Dew Point: 13°C
Humidity: 83%
Barometer: 1009.5 hPa
Clouds: Clear
Visibility: 16 km
2018/06/24 13:54 KHWD 241354Z 00000KT 10SM CLR 16/13 A2981 RMK AO2 SLP104 T01560128
KLVK - Livermore, California, USA
Distance from station: NNE 51km
Updated: 24/06/2018 16:53
Clear
Clear
 Wind from SSW
Wind: SSW 11 km/h
Temperature: 18°C
Dew Point: 11°C
Humidity: 64%
Barometer: 1008.8 hPa
Clouds: Clear
Visibility: 16 km
2018/06/24 13:53 KLVK 241353Z 20006KT 10SM CLR 18/11 A2979 RMK AO2 SLP084 T01780106